Time,TemperatureF,DewpointF,PressureIn,WindDirection,WindDirectionDegrees,WindSpeedMPH,WindSpeedGustMPH,Humidity,HourlyPrecipIn,Conditions,Clouds,dailyrainin,SoftwareType,DateUTC
2013-11-05 00:13:00,43.6,29.0,30.60,ENE,75,1.0,7.0,57,0.00,,,0.00,weatherlink.com 1.10,2013-11-05 05:13:00,
2013-11-05 00:29:00,43.8,28.0,30.60,ENE,76,5.0,9.0,55,0.00,,,0.00,weatherlink.com 1.10,2013-11-05 05:29:00,
2013-11-05 00:44:00,44.0,29.0,30.61,ENE,73,2.0,6.0,55,0.00,,,0.00,weatherlink.com 1.10,2013-11-05 05:44:00,
2013-11-05 00:59:00,44.1,28.0,30.61,North,1,4.0,8.0,53,0.00,,,0.00,weatherlink.com 1.10,2013-11-05 05:59:00,
2013-11-05 01:14:00,42.9,32.0,30.61,NNE,20,5.0,9.0,65,0.00,,,0.00,weatherlink.com 1.10,2013-11-05 06:14:00,
2013-11-05 01:29:00,43.3,32.0,30.60,NNE,20,4.0,9.0,65,0.00,,,0.00,weatherlink.com 1.10,2013-11-05 06:29:00,
2013-11-05 01:44:00,43.0,32.0,30.60,NNE,20,3.0,9.0,66,0.00,,,0.00,weatherlink.com 1.10,2013-11-05 06:44:00,
2013-11-05 01:59:00,42.9,33.0,30.60,NNE,13,6.0,8.0,68,0.00,,,0.00,weatherlink.com 1.10,2013-11-05 06:59:00,
2013-11-05 02:14:00,43.6,34.0,30.59,NE,53,2.0,10.0,69,0.00,,,0.00,weatherlink.com 1.10,2013-11-05 07:14:00,
2013-11-05 02:29:00,44.1,31.0,30.58,ENE,60,6.0,10.0,61,0.00,,,0.00,weatherlink.com 1.10,2013-11-05 07:29:00,
2013-11-05 02:44:00,44.1,30.0,30.57,East,83,3.0,9.0,59,0.00,,,0.00,weatherlink.com 1.10,2013-11-05 07:44:00,
2013-11-05 02:59:00,43.9,31.0,30.56,East,79,6.0,13.0,60,0.00,,,0.00,weatherlink.com 1.10,2013-11-05 07:59:00,
2013-11-05 03:14:00,43.9,32.0,30.56,NNE,20,1.0,10.0,64,0.00,,,0.00,weatherlink.com 1.10,2013-11-05 08:14:00,
2013-11-05 03:29:00,43.7,32.0,30.56,ESE,105,2.0,10.0,63,0.00,,,0.00,weatherlink.com 1.10,2013-11-05 08:29:00,
2013-11-05 03:44:00,43.7,34.0,30.57,NNE,32,1.0,10.0,68,0.00,,,0.00,weatherlink.com 1.10,2013-11-05 08:44:00,
2013-11-05 03:59:00,43.8,34.0,30.57,NE,53,6.0,10.0,69,0.00,,,0.00,weatherlink.com 1.10,2013-11-05 08:59:00,
2013-11-05 04:14:00,43.7,34.0,30.57,ENE,76,2.0,9.0,70,0.00,,,0.00,weatherlink.com 1.10,2013-11-05 09:14:00,
2013-11-05 04:29:00,43.4,34.0,30.57,South,169,0.0,8.0,70,0.00,,,0.00,weatherlink.com 1.10,2013-11-05 09:29:00,
2013-11-05 04:44:00,43.3,34.0,30.59,NE,51,3.0,10.0,71,0.00,,,0.00,weatherlink.com 1.10,2013-11-05 09:44:00,
2013-11-05 04:59:00,43.4,35.0,30.59,NE,47,5.0,7.0,71,0.00,,,0.00,weatherlink.com 1.10,2013-11-05 09:59:00,
2013-11-05 05:14:00,43.4,35.0,30.59,NE,52,6.0,9.0,71,0.00,,,0.00,weatherlink.com 1.10,2013-11-05 10:14:00,
2013-11-05 05:29:00,43.2,35.0,30.59,NE,53,2.0,9.0,72,0.00,,,0.00,weatherlink.com 1.10,2013-11-05 10:29:00,
2013-11-05 05:44:00,43.0,34.0,30.59,ENE,57,6.0,8.0,70,0.00,,,0.00,weatherlink.com 1.10,2013-11-05 10:44:00,
2013-11-05 05:59:00,43.1,34.0,30.59,ENE,68,4.0,7.0,71,0.00,,,0.00,weatherlink.com 1.10,2013-11-05 10:59:00,
2013-11-05 06:14:00,43.1,34.0,30.59,NE,46,3.0,7.0,70,0.00,,,0.00,weatherlink.com 1.10,2013-11-05 11:14:00,
2013-11-05 06:29:00,43.1,34.0,30.59,NE,34,4.0,8.0,71,0.00,,,0.00,weatherlink.com 1.10,2013-11-05 11:29:00,
2013-11-05 06:44:00,43.2,35.0,30.59,NE,42,5.0,8.0,72,0.00,,,0.00,weatherlink.com 1.10,2013-11-05 11:44:00,
2013-11-05 06:59:00,43.3,35.0,30.60,NE,51,2.0,9.0,72,0.00,,,0.00,weatherlink.com 1.10,2013-11-05 11:59:00,
2013-11-05 07:14:00,43.7,35.0,30.60,NE,37,5.0,9.0,72,0.00,,,0.00,weatherlink.com 1.10,2013-11-05 12:14:00,
2013-11-05 07:29:00,44.2,35.0,30.59,NE,51,7.0,9.0,71,0.00,,,0.00,weatherlink.com 1.10,2013-11-05 12:29:00,
2013-11-05 07:44:00,44.6,35.0,30.60,NE,50,6.0,8.0,70,0.00,,,0.00,weatherlink.com 1.10,2013-11-05 12:44:00,
2013-11-05 07:59:00,45.5,36.0,30.60,NE,52,3.0,7.0,70,0.00,,,0.00,weatherlink.com 1.10,2013-11-05 12:59:00,
2013-11-05 08:14:00,46.5,36.0,30.59,East,89,0.0,5.0,67,0.00,,,0.00,weatherlink.com 1.10,2013-11-05 13:14:00,
2013-11-05 08:30:00,47.3,36.0,30.59,ESE,105,5.0,6.0,65,0.00,,,0.00,weatherlink.com 1.10,2013-11-05 13:30:00,
2013-11-05 08:45:00,47.5,37.0,30.59,ENE,71,4.0,7.0,66,0.00,,,0.00,weatherlink.com 1.10,2013-11-05 13:45:00,
2013-11-05 09:00:00,47.6,37.0,30.59,East,91,2.0,9.0,66,0.00,,,0.00,weatherlink.com 1.10,2013-11-05 14:00:00,
2013-11-05 09:15:00,48.2,37.0,30.60,NE,51,2.0,8.0,65,0.00,,,0.00,weatherlink.com 1.10,2013-11-05 14:15:00,
2013-11-05 09:30:00,48.8,37.0,30.60,NE,42,2.0,6.0,64,0.00,,,0.00,weatherlink.com 1.10,2013-11-05 14:30:00,
2013-11-05 09:45:00,49.3,37.0,30.60,NE,45,3.0,5.0,63,0.00,,,0.00,weatherlink.com 1.10,2013-11-05 14:45:00,
2013-11-05 10:00:00,49.9,37.0,30.59,ENE,70,4.0,7.0,62,0.00,,,0.00,weatherlink.com 1.10,2013-11-05 15:00:00,
2013-11-05 10:15:00,50.4,39.0,30.59,ENE,69,3.0,6.0,64,0.00,,,0.00,weatherlink.com 1.10,2013-11-05 15:15:00,
2013-11-05 10:30:00,51.1,39.0,30.59,SE,140,4.0,7.0,64,0.00,,,0.00,weatherlink.com 1.10,2013-11-05 15:30:00,
2013-11-05 10:45:00,51.3,39.0,30.59,SE,139,3.0,8.0,63,0.00,,,0.00,weatherlink.com 1.10,2013-11-05 15:45:00,
2013-11-05 11:00:00,52.0,39.0,30.59,SSE,160,5.0,10.0,62,0.00,,,0.00,weatherlink.com 1.10,2013-11-05 16:00:00,
2013-11-05 11:15:00,52.0,39.0,30.59,SSW,207,3.0,7.0,61,0.00,,,0.00,weatherlink.com 1.10,2013-11-05 16:15:00,
2013-11-05 11:30:00,52.2,39.0,30.59,SSW,199,8.0,8.0,62,0.00,,,0.00,weatherlink.com 1.10,2013-11-05 16:30:00,
2013-11-05 11:45:00,52.4,40.0,30.58,East,79,4.0,7.0,62,0.00,,,0.00,weatherlink.com 1.10,2013-11-05 16:45:00,
2013-11-05 12:00:00,52.7,40.0,30.57,ESE,117,3.0,5.0,62,0.00,,,0.00,weatherlink.com 1.10,2013-11-05 17:00:00,
2013-11-05 12:15:00,52.7,40.0,30.56,SSW,202,1.0,6.0,62,0.00,,,0.00,weatherlink.com 1.10,2013-11-05 17:15:00,
2013-11-05 12:30:00,52.7,39.0,30.55,SE,134,1.0,4.0,61,0.00,,,0.00,weatherlink.com 1.10,2013-11-05 17:30:00,
2013-11-05 12:45:00,52.9,40.0,30.55,SE,136,1.0,6.0,61,0.00,,,0.00,weatherlink.com 1.10,2013-11-05 17:45:00,
2013-11-05 13:00:00,53.2,39.0,30.55,East,96,1.0,4.0,60,0.00,,,0.00,weatherlink.com 1.10,2013-11-05 18:00:00,
2013-11-05 13:15:00,53.4,39.0,30.54,East,83,1.0,5.0,59,0.00,,,0.00,weatherlink.com 1.10,2013-11-05 18:15:00,
2013-11-05 13:30:00,53.6,40.0,30.54,NNE,21,2.0,5.0,61,0.00,,,0.00,weatherlink.com 1.10,2013-11-05 18:30:00,
2013-11-05 13:45:00,53.4,40.0,30.54,South,181,4.0,7.0,60,0.00,,,0.00,weatherlink.com 1.10,2013-11-05 18:45:00,
2013-11-05 14:00:00,53.6,40.0,30.53,SE,133,1.0,6.0,60,0.00,,,0.00,weatherlink.com 1.10,2013-11-05 19:00:00,
2013-11-05 14:15:00,53.6,39.0,30.52,SE,132,1.0,7.0,59,0.00,,,0.00,weatherlink.com 1.10,2013-11-05 19:15:00,
2013-11-05 14:30:00,53.6,40.0,30.52,SSE,158,3.0,5.0,60,0.00,,,0.00,weatherlink.com 1.10,2013-11-05 19:30:00,
2013-11-05 14:45:00,53.5,40.0,30.52,SE,141,3.0,6.0,60,0.00,,,0.00,weatherlink.com 1.10,2013-11-05 19:45:00,
2013-11-05 15:00:00,53.3,40.0,30.51,SE,129,1.0,4.0,62,0.00,,,0.00,weatherlink.com 1.10,2013-11-05 20:00:00,
2013-11-05 15:15:00,53.2,40.0,30.51,ESE,107,6.0,7.0,62,0.00,,,0.00,weatherlink.com 1.10,2013-11-05 20:15:00,
2013-11-05 15:30:00,53.1,41.0,30.50,ESE,119,3.0,7.0,63,0.00,,,0.00,weatherlink.com 1.10,2013-11-05 20:30:00,
2013-11-05 15:45:00,52.8,40.0,30.50,SE,127,0.0,7.0,63,0.00,,,0.00,weatherlink.com 1.10,2013-11-05 20:45:00,
2013-11-05 16:00:00,52.8,40.0,30.50,ESE,120,2.0,5.0,63,0.00,,,0.00,weatherlink.com 1.10,2013-11-05 21:00:00,
2013-11-05 16:15:00,52.6,41.0,30.50,ESE,119,5.0,7.0,64,0.00,,,0.00,weatherlink.com 1.10,2013-11-05 21:15:00,
2013-11-05 16:30:00,52.2,41.0,30.50,SE,146,4.0,9.0,66,0.00,,,0.00,weatherlink.com 1.10,2013-11-05 21:30:00,
2013-11-05 16:45:00,51.7,41.0,30.50,SE,126,4.0,9.0,66,0.00,,,0.00,weatherlink.com 1.10,2013-11-05 21:45:00,
2013-11-05 17:00:00,51.4,41.0,30.49,ESE,102,4.0,7.0,67,0.00,,,0.00,weatherlink.com 1.10,2013-11-05 22:00:00,
2013-11-05 17:15:00,51.3,41.0,30.49,East,86,1.0,9.0,69,0.00,,,0.00,weatherlink.com 1.10,2013-11-05 22:15:00,
2013-11-05 17:30:00,51.1,41.0,30.49,SSE,147,5.0,8.0,69,0.00,,,0.00,weatherlink.com 1.10,2013-11-05 22:30:00,
2013-11-05 17:45:00,51.1,41.0,30.50,SE,125,2.0,7.0,69,0.00,,,0.00,weatherlink.com 1.10,2013-11-05 22:45:00,
2013-11-05 18:00:00,51.0,42.0,30.50,SSE,160,0.0,6.0,70,0.00,,,0.00,weatherlink.com 1.10,2013-11-05 23:00:00,
2013-11-05 18:15:00,50.9,41.0,30.50,SE,129,0.0,5.0,70,0.00,,,0.00,weatherlink.com 1.10,2013-11-05 23:15:00,
2013-11-05 18:30:00,50.8,42.0,30.50,South,172,0.0,4.0,71,0.00,,,0.00,weatherlink.com 1.10,2013-11-05 23:30:00,
2013-11-05 18:45:00,50.7,42.0,30.51,ESE,117,3.0,4.0,71,0.00,,,0.00,weatherlink.com 1.10,2013-11-05 23:45:00,
2013-11-05 19:00:00,50.7,42.0,30.50,SE,133,0.0,2.0,71,0.00,,,0.00,weatherlink.com 1.10,2013-11-06 00:00:00,
2013-11-05 19:15:00,50.7,42.0,30.51,ESE,104,0.0,2.0,72,0.00,,,0.00,weatherlink.com 1.10,2013-11-06 00:15:00,
2013-11-05 19:30:00,50.7,42.0,30.51,SSE,149,0.0,2.0,72,0.00,,,0.00,weatherlink.com 1.10,2013-11-06 00:30:00,
2013-11-05 19:45:00,50.8,42.0,30.51,SE,130,1.0,3.0,73,0.00,,,0.00,weatherlink.com 1.10,2013-11-06 00:45:00,
2013-11-05 20:00:00,50.6,43.0,30.50,ESE,115,0.0,2.0,74,0.00,,,0.00,weatherlink.com 1.10,2013-11-06 01:00:00,
2013-11-05 20:15:00,50.5,43.0,30.50,SE,127,0.0,1.0,74,0.00,,,0.00,weatherlink.com 1.10,2013-11-06 01:15:00,
2013-11-05 20:30:00,50.4,43.0,30.49,ESE,122,0.0,0.0,75,0.00,,,0.00,weatherlink.com 1.10,2013-11-06 01:30:00,
2013-11-05 20:45:00,50.3,43.0,30.49,ESE,116,0.0,1.0,75,0.00,,,0.00,weatherlink.com 1.10,2013-11-06 01:45:00,
2013-11-05 21:00:00,50.1,42.0,30.48,ESE,116,0.0,1.0,75,0.00,,,0.00,weatherlink.com 1.10,2013-11-06 02:00:00,
2013-11-05 21:15:00,50.0,43.0,30.48,East,101,0.0,2.0,76,0.00,,,0.00,weatherlink.com 1.10,2013-11-06 02:15:00,
2013-11-05 21:30:00,49.9,43.0,30.48,ESE,105,0.0,1.0,77,0.00,,,0.00,weatherlink.com 1.10,2013-11-06 02:30:00,
2013-11-05 21:45:00,49.9,43.0,30.48,ESE,105,0.0,0.0,77,0.00,,,0.00,weatherlink.com 1.10,2013-11-06 02:45:00,
2013-11-05 22:00:00,49.9,43.0,30.48,ESE,108,0.0,2.0,77,0.00,,,0.00,weatherlink.com 1.10,2013-11-06 03:00:00,
2013-11-05 22:15:00,49.9,43.0,30.47,ESE,108,0.0,1.0,77,0.00,,,0.00,weatherlink.com 1.10,2013-11-06 03:15:00,
2013-11-05 22:30:00,50.2,44.0,30.46,ESE,120,0.0,2.0,78,0.00,,,0.00,weatherlink.com 1.10,2013-11-06 03:30:00,
2013-11-05 22:45:00,50.3,44.0,30.45,East,85,0.0,2.0,78,0.00,,,0.00,weatherlink.com 1.10,2013-11-06 03:45:00,
2013-11-05 23:00:00,50.2,44.0,30.45,ENE,75,0.0,2.0,78,0.00,,,0.00,weatherlink.com 1.10,2013-11-06 04:00:00,
2013-11-05 23:15:00,50.1,44.0,30.46,ENE,57,0.0,0.0,78,0.00,,,0.00,weatherlink.com 1.10,2013-11-06 04:15:00,
2013-11-05 23:31:00,49.9,44.0,30.46,ENE,57,0.0,1.0,80,0.00,,,0.00,weatherlink.com 1.10,2013-11-06 04:31:00,
2013-11-05 23:46:00,49.4,44.0,30.44,ENE,57,0.0,1.0,82,0.00,,,0.00,weatherlink.com 1.10,2013-11-06 04:46:00,